sensor_id;sensor_type;location;lat;lon;timestamp;P1;durP1;ratioP1;P2;durP2;ratioP2
19095;SDS011;9680;52.520;13.332;2023-03-19T00:02:21;19.50;;;9.93;;
19095;SDS011;9680;52.520;13.332;2023-03-19T00:04:49;21.90;;;10.50;;
19095;SDS011;9680;52.520;13.332;2023-03-19T00:07:17;20.43;;;10.23;;
19095;SDS011;9680;52.520;13.332;2023-03-19T00:09:44;20.60;;;9.70;;
19095;SDS011;9680;52.520;13.332;2023-03-19T00:12:12;19.13;;;9.03;;
19095;SDS011;9680;52.520;13.332;2023-03-19T00:14:39;22.00;;;9.27;;
19095;SDS011;9680;52.520;13.332;2023-03-19T00:17:06;19.00;;;9.13;;
19095;SDS011;9680;52.520;13.332;2023-03-19T00:19:33;19.30;;;10.00;;
19095;SDS011;9680;52.520;13.332;2023-03-19T00:22:00;16.83;;;9.10;;
19095;SDS011;9680;52.520;13.332;2023-03-19T00:24:28;25.27;;;9.97;;
19095;SDS011;9680;52.520;13.332;2023-03-19T00:26:55;22.30;;;9.67;;
19095;SDS011;9680;52.520;13.332;2023-03-19T00:29:23;20.30;;;9.97;;
19095;SDS011;9680;52.520;13.332;2023-03-19T00:31:49;19.20;;;9.23;;
19095;SDS011;9680;52.520;13.332;2023-03-19T00:34:16;17.00;;;9.23;;
19095;SDS011;9680;52.520;13.332;2023-03-19T00:36:43;22.90;;;9.70;;
19095;SDS011;9680;52.520;13.332;2023-03-19T00:39:11;21.37;;;9.43;;
19095;SDS011;9680;52.520;13.332;2023-03-19T00:41:39;20.87;;;9.90;;
19095;SDS011;9680;52.520;13.332;2023-03-19T00:44:06;22.93;;;9.87;;
19095;SDS011;9680;52.520;13.332;2023-03-19T00:46:32;20.00;;;9.10;;
19095;SDS011;9680;52.520;13.332;2023-03-19T00:49:00;16.23;;;9.07;;
19095;SDS011;9680;52.520;13.332;2023-03-19T00:51:27;19.27;;;9.93;;
19095;SDS011;9680;52.520;13.332;2023-03-19T00:53:53;17.83;;;9.07;;
19095;SDS011;9680;52.520;13.332;2023-03-19T00:56:20;19.90;;;8.90;;
19095;SDS011;9680;52.520;13.332;2023-03-19T00:58:48;17.80;;;9.30;;
19095;SDS011;9680;52.520;13.332;2023-03-19T01:01:16;18.03;;;8.87;;
19095;SDS011;9680;52.520;13.332;2023-03-19T01:03:43;18.17;;;9.03;;
19095;SDS011;9680;52.520;13.332;2023-03-19T01:06:13;18.77;;;8.83;;
19095;SDS011;9680;52.520;13.332;2023-03-19T01:08:40;20.43;;;9.03;;
19095;SDS011;9680;52.520;13.332;2023-03-19T01:11:07;16.17;;;8.50;;
19095;SDS011;9680;52.520;13.332;2023-03-19T01:13:35;19.17;;;8.53;;
19095;SDS011;9680;52.520;13.332;2023-03-19T01:16:04;19.67;;;9.40;;
19095;SDS011;9680;52.520;13.332;2023-03-19T01:18:32;17.67;;;9.13;;
19095;SDS011;9680;52.520;13.332;2023-03-19T01:20:59;19.57;;;8.80;;
19095;SDS011;9680;52.520;13.332;2023-03-19T01:23:28;19.60;;;8.80;;
19095;SDS011;9680;52.520;13.332;2023-03-19T01:25:55;16.87;;;8.97;;
19095;SDS011;9680;52.520;13.332;2023-03-19T01:28:23;17.37;;;8.77;;
19095;SDS011;9680;52.520;13.332;2023-03-19T01:30:51;18.23;;;8.90;;
19095;SDS011;9680;52.520;13.332;2023-03-19T01:33:46;16.43;;;8.43;;
19095;SDS011;9680;52.520;13.332;2023-03-19T01:36:24;19.33;;;9.77;;
19095;SDS011;9680;52.520;13.332;2023-03-19T01:38:57;22.47;;;9.73;;
19095;SDS011;9680;52.520;13.332;2023-03-19T01:41:24;20.93;;;9.17;;
19095;SDS011;9680;52.520;13.332;2023-03-19T01:43:55;19.77;;;9.27;;
19095;SDS011;9680;52.520;13.332;2023-03-19T01:46:38;24.77;;;10.40;;
19095;SDS011;9680;52.520;13.332;2023-03-19T01:49:34;20.53;;;10.37;;
19095;SDS011;9680;52.520;13.332;2023-03-19T01:52:14;17.93;;;9.33;;
19095;SDS011;9680;52.520;13.332;2023-03-19T01:54:55;21.93;;;9.93;;
19095;SDS011;9680;52.520;13.332;2023-03-19T01:57:47;22.63;;;10.53;;
19095;SDS011;9680;52.520;13.332;2023-03-19T02:00:20;22.90;;;10.70;;
19095;SDS011;9680;52.520;13.332;2023-03-19T02:02:47;20.10;;;9.57;;
19095;SDS011;9680;52.520;13.332;2023-03-19T02:05:43;24.23;;;11.07;;
19095;SDS011;9680;52.520;13.332;2023-03-19T02:08:13;22.73;;;10.50;;
19095;SDS011;9680;52.520;13.332;2023-03-19T02:10:43;23.10;;;10.13;;
19095;SDS011;9680;52.520;13.332;2023-03-19T02:13:12;21.57;;;10.63;;
19095;SDS011;9680;52.520;13.332;2023-03-19T02:15:39;21.63;;;10.20;;
19095;SDS011;9680;52.520;13.332;2023-03-19T02:18:07;20.80;;;10.13;;
19095;SDS011;9680;52.520;13.332;2023-03-19T02:20:36;19.40;;;10.00;;
19095;SDS011;9680;52.520;13.332;2023-03-19T02:23:14;23.03;;;10.27;;
19095;SDS011;9680;52.520;13.332;2023-03-19T02:25:58;23.37;;;10.23;;
19095;SDS011;9680;52.520;13.332;2023-03-19T02:28:28;24.17;;;10.23;;
19095;SDS011;9680;52.520;13.332;2023-03-19T02:30:57;21.43;;;10.20;;
19095;SDS011;9680;52.520;13.332;2023-03-19T02:33:24;19.67;;;9.57;;
19095;SDS011;9680;52.520;13.332;2023-03-19T02:35:51;23.23;;;10.40;;
19095;SDS011;9680;52.520;13.332;2023-03-19T02:38:20;21.17;;;10.53;;
19095;SDS011;9680;52.520;13.332;2023-03-19T02:40:50;26.20;;;11.03;;
19095;SDS011;9680;52.520;13.332;2023-03-19T02:43:21;21.07;;;10.93;;
19095;SDS011;9680;52.520;13.332;2023-03-19T02:45:49;27.90;;;11.27;;
19095;SDS011;9680;52.520;13.332;2023-03-19T02:48:17;22.03;;;11.07;;
19095;SDS011;9680;52.520;13.332;2023-03-19T02:50:44;22.40;;;10.30;;
19095;SDS011;9680;52.520;13.332;2023-03-19T02:53:11;26.77;;;9.90;;
19095;SDS011;9680;52.520;13.332;2023-03-19T02:55:38;21.50;;;10.37;;
19095;SDS011;9680;52.520;13.332;2023-03-19T02:58:05;22.37;;;11.10;;
19095;SDS011;9680;52.520;13.332;2023-03-19T03:00:33;22.13;;;10.63;;
19095;SDS011;9680;52.520;13.332;2023-03-19T03:03:00;20.27;;;10.27;;
19095;SDS011;9680;52.520;13.332;2023-03-19T03:05:27;34.70;;;11.70;;
19095;SDS011;9680;52.520;13.332;2023-03-19T03:07:54;25.83;;;11.13;;
19095;SDS011;9680;52.520;13.332;2023-03-19T03:12:53;20.77;;;10.10;;
19095;SDS011;9680;52.520;13.332;2023-03-19T03:15:20;23.40;;;11.40;;
19095;SDS011;9680;52.520;13.332;2023-03-19T03:17:48;25.50;;;12.17;;
19095;SDS011;9680;52.520;13.332;2023-03-19T03:20:15;24.13;;;11.00;;
19095;SDS011;9680;52.520;13.332;2023-03-19T03:22:44;23.93;;;11.07;;
19095;SDS011;9680;52.520;13.332;2023-03-19T03:25:11;23.57;;;11.53;;
19095;SDS011;9680;52.520;13.332;2023-03-19T03:27:39;23.73;;;10.90;;
19095;SDS011;9680;52.520;13.332;2023-03-19T03:30:07;25.13;;;10.90;;
19095;SDS011;9680;52.520;13.332;2023-03-19T03:32:36;21.63;;;10.63;;
19095;SDS011;9680;52.520;13.332;2023-03-19T03:35:05;22.07;;;11.17;;
19095;SDS011;9680;52.520;13.332;2023-03-19T03:37:34;24.53;;;11.33;;
19095;SDS011;9680;52.520;13.332;2023-03-19T03:40:01;24.57;;;11.17;;
19095;SDS011;9680;52.520;13.332;2023-03-19T03:42:32;23.83;;;11.43;;
19095;SDS011;9680;52.520;13.332;2023-03-19T03:45:00;25.13;;;11.77;;
19095;SDS011;9680;52.520;13.332;2023-03-19T03:47:27;25.57;;;11.60;;
19095;SDS011;9680;52.520;13.332;2023-03-19T03:49:54;24.50;;;11.70;;
19095;SDS011;9680;52.520;13.332;2023-03-19T03:52:22;26.97;;;12.17;;
19095;SDS011;9680;52.520;13.332;2023-03-19T03:54:49;25.43;;;11.90;;
19095;SDS011;9680;52.520;13.332;2023-03-19T03:57:16;25.77;;;11.83;;
19095;SDS011;9680;52.520;13.332;2023-03-19T03:59:43;29.70;;;11.43;;
19095;SDS011;9680;52.520;13.332;2023-03-19T04:02:10;27.67;;;11.83;;
19095;SDS011;9680;52.520;13.332;2023-03-19T04:04:37;23.60;;;11.67;;
19095;SDS011;9680;52.520;13.332;2023-03-19T04:07:04;24.83;;;11.53;;
19095;SDS011;9680;52.520;13.332;2023-03-19T04:09:42;22.90;;;10.83;;
19095;SDS011;9680;52.520;13.332;2023-03-19T04:12:10;21.20;;;10.50;;
19095;SDS011;9680;52.520;13.332;2023-03-19T04:14:38;22.10;;;11.17;;
19095;SDS011;9680;52.520;13.332;2023-03-19T04:17:05;22.00;;;11.17;;
19095;SDS011;9680;52.520;13.332;2023-03-19T04:19:32;26.00;;;11.80;;
19095;SDS011;9680;52.520;13.332;2023-03-19T04:21:58;25.77;;;10.93;;
19095;SDS011;9680;52.520;13.332;2023-03-19T04:24:28;25.27;;;11.43;;
19095;SDS011;9680;52.520;13.332;2023-03-19T04:26:58;24.30;;;11.10;;
19095;SDS011;9680;52.520;13.332;2023-03-19T04:29:25;24.47;;;11.23;;
19095;SDS011;9680;52.520;13.332;2023-03-19T04:31:52;24.47;;;10.50;;
19095;SDS011;9680;52.520;13.332;2023-03-19T04:34:19;25.03;;;11.20;;
19095;SDS011;9680;52.520;13.332;2023-03-19T04:36:46;21.63;;;11.20;;
19095;SDS011;9680;52.520;13.332;2023-03-19T04:39:14;21.53;;;11.10;;
19095;SDS011;9680;52.520;13.332;2023-03-19T04:41:41;21.97;;;10.27;;
19095;SDS011;9680;52.520;13.332;2023-03-19T04:44:25;23.10;;;11.30;;
19095;SDS011;9680;52.520;13.332;2023-03-19T04:46:53;22.87;;;10.80;;
19095;SDS011;9680;52.520;13.332;2023-03-19T04:49:21;21.17;;;11.03;;
19095;SDS011;9680;52.520;13.332;2023-03-19T04:51:49;25.10;;;11.07;;
19095;SDS011;9680;52.520;13.332;2023-03-19T04:54:16;21.43;;;10.57;;
19095;SDS011;9680;52.520;13.332;2023-03-19T04:56:44;26.93;;;11.30;;
19095;SDS011;9680;52.520;13.332;2023-03-19T04:59:11;24.67;;;12.53;;
19095;SDS011;9680;52.520;13.332;2023-03-19T05:01:40;23.53;;;11.13;;
19095;SDS011;9680;52.520;13.332;2023-03-19T05:04:10;25.83;;;11.43;;
19095;SDS011;9680;52.520;13.332;2023-03-19T05:06:37;24.00;;;11.03;;
19095;SDS011;9680;52.520;13.332;2023-03-19T05:09:05;24.23;;;11.67;;
19095;SDS011;9680;52.520;13.332;2023-03-19T05:11:32;23.63;;;11.37;;
19095;SDS011;9680;52.520;13.332;2023-03-19T05:14:06;26.93;;;13.43;;
19095;SDS011;9680;52.520;13.332;2023-03-19T05:16:46;27.67;;;12.17;;
19095;SDS011;9680;52.520;13.332;2023-03-19T05:19:13;22.83;;;12.00;;
19095;SDS011;9680;52.520;13.332;2023-03-19T05:21:40;26.00;;;12.77;;
19095;SDS011;9680;52.520;13.332;2023-03-19T05:24:08;25.53;;;12.93;;
19095;SDS011;9680;52.520;13.332;2023-03-19T05:26:35;25.63;;;12.90;;
19095;SDS011;9680;52.520;13.332;2023-03-19T05:29:41;26.03;;;12.10;;
19095;SDS011;9680;52.520;13.332;2023-03-19T05:32:19;28.13;;;13.43;;
19095;SDS011;9680;52.520;13.332;2023-03-19T05:34:46;22.67;;;12.53;;
19095;SDS011;9680;52.520;13.332;2023-03-19T05:37:13;28.77;;;13.30;;
19095;SDS011;9680;52.520;13.332;2023-03-19T05:39:44;29.40;;;13.40;;
19095;SDS011;9680;52.520;13.332;2023-03-19T05:42:12;24.83;;;12.77;;
19095;SDS011;9680;52.520;13.332;2023-03-19T05:44:40;26.77;;;13.10;;
19095;SDS011;9680;52.520;13.332;2023-03-19T05:47:16;29.20;;;13.87;;
19095;SDS011;9680;52.520;13.332;2023-03-19T05:49:52;27.07;;;13.33;;
19095;SDS011;9680;52.520;13.332;2023-03-19T05:52:18;30.03;;;13.47;;
19095;SDS011;9680;52.520;13.332;2023-03-19T05:54:47;33.83;;;13.83;;
19095;SDS011;9680;52.520;13.332;2023-03-19T05:57:35;20.53;;;10.70;;
19095;SDS011;9680;52.520;13.332;2023-03-19T06:00:13;20.27;;;10.87;;
19095;SDS011;9680;52.520;13.332;2023-03-19T06:02:41;27.90;;;11.63;;
19095;SDS011;9680;52.520;13.332;2023-03-19T06:05:35;23.47;;;10.47;;
19095;SDS011;9680;52.520;13.332;2023-03-19T06:08:20;23.00;;;10.60;;
19095;SDS011;9680;52.520;13.332;2023-03-19T06:11:11;21.47;;;10.80;;
19095;SDS011;9680;52.520;13.332;2023-03-19T06:13:47;25.83;;;10.60;;
19095;SDS011;9680;52.520;13.332;2023-03-19T06:16:25;20.70;;;10.77;;
19095;SDS011;9680;52.520;13.332;2023-03-19T06:18:57;22.57;;;10.13;;
19095;SDS011;9680;52.520;13.332;2023-03-19T06:21:35;20.07;;;10.47;;
19095;SDS011;9680;52.520;13.332;2023-03-19T06:24:17;19.87;;;10.03;;
19095;SDS011;9680;52.520;13.332;2023-03-19T06:26:44;19.57;;;10.20;;
19095;SDS011;9680;52.520;13.332;2023-03-19T06:29:13;17.77;;;8.93;;
19095;SDS011;9680;52.520;13.332;2023-03-19T06:31:44;20.80;;;9.70;;
19095;SDS011;9680;52.520;13.332;2023-03-19T06:34:18;17.43;;;9.27;;
19095;SDS011;9680;52.520;13.332;2023-03-19T06:36:47;19.10;;;9.53;;
19095;SDS011;9680;52.520;13.332;2023-03-19T06:39:16;21.60;;;10.23;;
19095;SDS011;9680;52.520;13.332;2023-03-19T06:41:43;22.20;;;9.80;;
19095;SDS011;9680;52.520;13.332;2023-03-19T06:44:17;21.03;;;10.30;;
19095;SDS011;9680;52.520;13.332;2023-03-19T06:46:44;23.23;;;9.87;;
19095;SDS011;9680;52.520;13.332;2023-03-19T06:49:11;18.10;;;9.33;;
19095;SDS011;9680;52.520;13.332;2023-03-19T06:51:37;19.97;;;9.47;;
19095;SDS011;9680;52.520;13.332;2023-03-19T06:54:06;21.63;;;9.17;;
19095;SDS011;9680;52.520;13.332;2023-03-19T06:56:33;19.10;;;9.63;;
19095;SDS011;9680;52.520;13.332;2023-03-19T06:58:59;19.80;;;9.30;;
19095;SDS011;9680;52.520;13.332;2023-03-19T07:01:26;18.47;;;9.63;;
19095;SDS011;9680;52.520;13.332;2023-03-19T07:03:53;19.03;;;10.40;;
19095;SDS011;9680;52.520;13.332;2023-03-19T07:06:21;24.57;;;12.03;;
19095;SDS011;9680;52.520;13.332;2023-03-19T07:08:48;25.07;;;11.43;;
19095;SDS011;9680;52.520;13.332;2023-03-19T07:11:16;25.00;;;12.00;;
19095;SDS011;9680;52.520;13.332;2023-03-19T07:13:43;24.40;;;11.87;;
19095;SDS011;9680;52.520;13.332;2023-03-19T07:16:10;26.87;;;12.63;;
19095;SDS011;9680;52.520;13.332;2023-03-19T07:18:37;24.43;;;12.10;;
19095;SDS011;9680;52.520;13.332;2023-03-19T07:21:04;26.90;;;12.33;;
19095;SDS011;9680;52.520;13.332;2023-03-19T07:23:31;27.87;;;12.07;;
19095;SDS011;9680;52.520;13.332;2023-03-19T07:25:58;24.23;;;11.90;;
19095;SDS011;9680;52.520;13.332;2023-03-19T07:28:26;24.53;;;12.87;;
19095;SDS011;9680;52.520;13.332;2023-03-19T07:30:53;24.73;;;12.53;;
19095;SDS011;9680;52.520;13.332;2023-03-19T07:33:20;26.40;;;13.00;;
19095;SDS011;9680;52.520;13.332;2023-03-19T07:35:47;28.60;;;13.33;;
19095;SDS011;9680;52.520;13.332;2023-03-19T07:38:15;24.33;;;13.00;;
19095;SDS011;9680;52.520;13.332;2023-03-19T07:40:41;28.70;;;12.60;;
19095;SDS011;9680;52.520;13.332;2023-03-19T07:43:08;27.37;;;12.97;;
19095;SDS011;9680;52.520;13.332;2023-03-19T07:45:37;33.37;;;14.50;;
19095;SDS011;9680;52.520;13.332;2023-03-19T07:48:04;27.97;;;12.93;;
19095;SDS011;9680;52.520;13.332;2023-03-19T07:50:31;25.37;;;12.67;;
19095;SDS011;9680;52.520;13.332;2023-03-19T07:52:58;26.87;;;12.87;;
19095;SDS011;9680;52.520;13.332;2023-03-19T07:55:25;27.53;;;12.77;;
19095;SDS011;9680;52.520;13.332;2023-03-19T07:57:51;29.60;;;13.90;;
19095;SDS011;9680;52.520;13.332;2023-03-19T08:00:18;31.40;;;13.93;;
19095;SDS011;9680;52.520;13.332;2023-03-19T08:02:50;28.43;;;13.33;;
19095;SDS011;9680;52.520;13.332;2023-03-19T08:05:16;25.27;;;12.87;;
19095;SDS011;9680;52.520;13.332;2023-03-19T08:07:43;24.17;;;12.60;;
19095;SDS011;9680;52.520;13.332;2023-03-19T08:10:11;26.93;;;13.40;;
19095;SDS011;9680;52.520;13.332;2023-03-19T08:12:38;26.67;;;13.30;;
19095;SDS011;9680;52.520;13.332;2023-03-19T08:15:07;30.70;;;14.37;;
19095;SDS011;9680;52.520;13.332;2023-03-19T08:17:35;30.33;;;14.77;;
19095;SDS011;9680;52.520;13.332;2023-03-19T08:20:05;32.87;;;15.70;;
19095;SDS011;9680;52.520;13.332;2023-03-19T08:22:34;26.07;;;14.27;;
19095;SDS011;9680;52.520;13.332;2023-03-19T08:25:02;28.87;;;14.80;;
19095;SDS011;9680;52.520;13.332;2023-03-19T08:27:29;27.43;;;13.63;;
19095;SDS011;9680;52.520;13.332;2023-03-19T08:30:00;28.17;;;13.97;;
19095;SDS011;9680;52.520;13.332;2023-03-19T08:32:28;28.60;;;14.20;;
19095;SDS011;9680;52.520;13.332;2023-03-19T08:34:55;25.53;;;13.70;;
19095;SDS011;9680;52.520;13.332;2023-03-19T08:37:23;31.63;;;13.53;;
19095;SDS011;9680;52.520;13.332;2023-03-19T08:39:50;28.33;;;13.57;;
19095;SDS011;9680;52.520;13.332;2023-03-19T08:42:17;25.57;;;13.80;;
19095;SDS011;9680;52.520;13.332;2023-03-19T08:44:44;27.03;;;13.60;;
19095;SDS011;9680;52.520;13.332;2023-03-19T08:47:11;29.20;;;13.77;;
19095;SDS011;9680;52.520;13.332;2023-03-19T08:49:38;25.37;;;13.80;;
19095;SDS011;9680;52.520;13.332;2023-03-19T08:52:05;26.70;;;13.47;;
19095;SDS011;9680;52.520;13.332;2023-03-19T08:54:34;27.47;;;13.70;;
19095;SDS011;9680;52.520;13.332;2023-03-19T08:57:01;28.80;;;13.67;;
19095;SDS011;9680;52.520;13.332;2023-03-19T08:59:28;27.10;;;13.73;;
19095;SDS011;9680;52.520;13.332;2023-03-19T09:01:55;26.77;;;13.47;;
19095;SDS011;9680;52.520;13.332;2023-03-19T09:04:22;29.60;;;13.80;;
19095;SDS011;9680;52.520;13.332;2023-03-19T09:06:49;24.73;;;12.63;;
19095;SDS011;9680;52.520;13.332;2023-03-19T09:09:16;23.77;;;12.53;;
19095;SDS011;9680;52.520;13.332;2023-03-19T09:11:45;27.20;;;13.50;;
19095;SDS011;9680;52.520;13.332;2023-03-19T09:14:13;31.27;;;13.60;;
19095;SDS011;9680;52.520;13.332;2023-03-19T09:16:40;25.87;;;12.57;;
19095;SDS011;9680;52.520;13.332;2023-03-19T09:19:08;28.53;;;12.57;;
19095;SDS011;9680;52.520;13.332;2023-03-19T09:21:35;23.60;;;11.73;;
19095;SDS011;9680;52.520;13.332;2023-03-19T09:24:02;23.17;;;11.93;;
19095;SDS011;9680;52.520;13.332;2023-03-19T09:26:29;23.30;;;11.63;;
19095;SDS011;9680;52.520;13.332;2023-03-19T09:28:57;23.03;;;11.93;;
19095;SDS011;9680;52.520;13.332;2023-03-19T09:31:24;23.77;;;11.47;;
19095;SDS011;9680;52.520;13.332;2023-03-19T09:33:51;23.67;;;11.97;;
19095;SDS011;9680;52.520;13.332;2023-03-19T09:36:18;20.93;;;11.33;;
19095;SDS011;9680;52.520;13.332;2023-03-19T09:38:44;21.17;;;11.60;;
19095;SDS011;9680;52.520;13.332;2023-03-19T09:41:12;22.17;;;10.87;;
19095;SDS011;9680;52.520;13.332;2023-03-19T09:43:55;26.60;;;11.80;;
19095;SDS011;9680;52.520;13.332;2023-03-19T09:46:27;21.00;;;11.20;;
19095;SDS011;9680;52.520;13.332;2023-03-19T09:48:59;21.50;;;10.90;;
19095;SDS011;9680;52.520;13.332;2023-03-19T09:51:33;21.83;;;11.40;;
19095;SDS011;9680;52.520;13.332;2023-03-19T09:54:07;19.50;;;10.67;;
19095;SDS011;9680;52.520;13.332;2023-03-19T09:56:47;20.42;;;10.18;;
19095;SDS011;9680;52.520;13.332;2023-03-19T09:59:16;17.90;;;9.63;;
19095;SDS011;9680;52.520;13.332;2023-03-19T10:01:45;18.30;;;9.70;;
19095;SDS011;9680;52.520;13.332;2023-03-19T10:04:29;21.80;;;9.50;;
19095;SDS011;9680;52.520;13.332;2023-03-19T10:07:07;16.40;;;8.82;;
19095;SDS011;9680;52.520;13.332;2023-03-19T10:09:50;17.17;;;9.00;;
19095;SDS011;9680;52.520;13.332;2023-03-19T10:12:32;19.30;;;9.50;;
19095;SDS011;9680;52.520;13.332;2023-03-19T10:15:13;17.23;;;9.60;;
19095;SDS011;9680;52.520;13.332;2023-03-19T10:17:51;18.58;;;9.95;;
19095;SDS011;9680;52.520;13.332;2023-03-19T10:20:27;16.60;;;9.55;;
19095;SDS011;9680;52.520;13.332;2023-03-19T10:22:58;15.98;;;9.38;;
19095;SDS011;9680;52.520;13.332;2023-03-19T10:25:29;20.45;;;9.93;;
19095;SDS011;9680;52.520;13.332;2023-03-19T10:27:59;18.25;;;9.80;;
19095;SDS011;9680;52.520;13.332;2023-03-19T10:30:34;18.23;;;9.27;;
19095;SDS011;9680;52.520;13.332;2023-03-19T10:33:04;18.30;;;8.98;;
19095;SDS011;9680;52.520;13.332;2023-03-19T10:35:40;17.48;;;9.50;;
19095;SDS011;9680;52.520;13.332;2023-03-19T10:40:55;17.00;;;9.57;;
19095;SDS011;9680;52.520;13.332;2023-03-19T10:43:30;20.52;;;11.02;;
19095;SDS011;9680;52.520;13.332;2023-03-19T10:46:00;20.77;;;10.73;;
19095;SDS011;9680;52.520;13.332;2023-03-19T10:48:31;21.80;;;10.13;;
19095;SDS011;9680;52.520;13.332;2023-03-19T10:50:59;18.70;;;10.10;;
19095;SDS011;9680;52.520;13.332;2023-03-19T10:53:30;17.98;;;10.00;;
19095;SDS011;9680;52.520;13.332;2023-03-19T10:55:59;16.60;;;9.90;;
19095;SDS011;9680;52.520;13.332;2023-03-19T10:58:28;17.88;;;9.02;;
19095;SDS011;9680;52.520;13.332;2023-03-19T11:00:57;18.73;;;9.73;;
19095;SDS011;9680;52.520;13.332;2023-03-19T11:03:30;16.67;;;9.27;;
19095;SDS011;9680;52.520;13.332;2023-03-19T11:06:05;15.80;;;9.00;;
19095;SDS011;9680;52.520;13.332;2023-03-19T11:08:42;16.55;;;9.05;;
19095;SDS011;9680;52.520;13.332;2023-03-19T11:11:26;19.10;;;9.85;;
19095;SDS011;9680;52.520;13.332;2023-03-19T11:14:04;18.50;;;9.55;;
19095;SDS011;9680;52.520;13.332;2023-03-19T11:16:45;15.55;;;9.15;;
19095;SDS011;9680;52.520;13.332;2023-03-19T11:19:19;15.80;;;9.27;;
19095;SDS011;9680;52.520;13.332;2023-03-19T11:22:01;17.25;;;8.65;;
19095;SDS011;9680;52.520;13.332;2023-03-19T11:24:36;15.30;;;8.38;;
19095;SDS011;9680;52.520;13.332;2023-03-19T11:27:03;14.77;;;8.57;;
19095;SDS011;9680;52.520;13.332;2023-03-19T11:29:31;14.27;;;8.73;;
19095;SDS011;9680;52.520;13.332;2023-03-19T11:32:04;14.98;;;8.38;;
19095;SDS011;9680;52.520;13.332;2023-03-19T11:34:42;13.60;;;8.00;;
19095;SDS011;9680;52.520;13.332;2023-03-19T11:37:19;13.48;;;7.63;;
19095;SDS011;9680;52.520;13.332;2023-03-19T11:39:55;14.82;;;7.22;;
19095;SDS011;9680;52.520;13.332;2023-03-19T11:45:21;11.88;;;6.93;;
19095;SDS011;9680;52.520;13.332;2023-03-19T11:47:58;13.60;;;7.53;;
19095;SDS011;9680;52.520;13.332;2023-03-19T11:50:40;14.90;;;7.82;;
19095;SDS011;9680;52.520;13.332;2023-03-19T11:53:17;15.98;;;7.93;;
19095;SDS011;9680;52.520;13.332;2023-03-19T11:55:52;13.13;;;7.20;;
19095;SDS011;9680;52.520;13.332;2023-03-19T11:58:34;13.43;;;6.63;;
19095;SDS011;9680;52.520;13.332;2023-03-19T12:01:29;12.82;;;6.57;;
19095;SDS011;9680;52.520;13.332;2023-03-19T12:04:15;12.63;;;6.45;;
19095;SDS011;9680;52.520;13.332;2023-03-19T12:07:04;14.10;;;6.45;;
19095;SDS011;9680;52.520;13.332;2023-03-19T12:09:43;11.95;;;6.75;;
19095;SDS011;9680;52.520;13.332;2023-03-19T12:12:20;11.18;;;7.10;;
19095;SDS011;9680;52.520;13.332;2023-03-19T12:14:54;12.77;;;7.25;;
19095;SDS011;9680;52.520;13.332;2023-03-19T12:17:34;13.20;;;6.82;;
19095;SDS011;9680;52.520;13.332;2023-03-19T12:20:18;12.25;;;7.07;;
19095;SDS011;9680;52.520;13.332;2023-03-19T12:23:05;11.70;;;6.95;;
19095;SDS011;9680;52.520;13.332;2023-03-19T12:25:42;14.27;;;7.25;;
19095;SDS011;9680;52.520;13.332;2023-03-19T12:28:29;19.85;;;9.57;;
19095;SDS011;9680;52.520;13.332;2023-03-19T12:31:22;14.52;;;7.05;;
19095;SDS011;9680;52.520;13.332;2023-03-19T12:36:51;15.07;;;7.63;;
19095;SDS011;9680;52.520;13.332;2023-03-19T12:39:25;13.50;;;7.22;;
19095;SDS011;9680;52.520;13.332;2023-03-19T12:41:57;16.30;;;6.75;;
19095;SDS011;9680;52.520;13.332;2023-03-19T12:44:28;13.95;;;7.40;;
19095;SDS011;9680;52.520;13.332;2023-03-19T12:47:00;12.82;;;7.18;;
19095;SDS011;9680;52.520;13.332;2023-03-19T12:49:31;12.02;;;6.97;;
19095;SDS011;9680;52.520;13.332;2023-03-19T12:52:06;13.57;;;7.22;;
19095;SDS011;9680;52.520;13.332;2023-03-19T12:54:43;11.38;;;6.60;;
19095;SDS011;9680;52.520;13.332;2023-03-19T12:57:18;12.82;;;7.25;;
19095;SDS011;9680;52.520;13.332;2023-03-19T12:59:57;14.05;;;7.40;;
19095;SDS011;9680;52.520;13.332;2023-03-19T13:02:32;13.45;;;7.65;;
19095;SDS011;9680;52.520;13.332;2023-03-19T13:05:06;14.00;;;7.57;;
19095;SDS011;9680;52.520;13.332;2023-03-19T13:07:41;12.48;;;6.57;;
19095;SDS011;9680;52.520;13.332;2023-03-19T13:10:18;11.65;;;7.05;;
19095;SDS011;9680;52.520;13.332;2023-03-19T13:12:49;12.40;;;7.35;;
19095;SDS011;9680;52.520;13.332;2023-03-19T13:15:20;11.57;;;6.60;;
19095;SDS011;9680;52.520;13.332;2023-03-19T13:21:10;11.80;;;6.82;;
19095;SDS011;9680;52.520;13.332;2023-03-19T13:24:03;13.63;;;7.10;;
19095;SDS011;9680;52.520;13.332;2023-03-19T13:26:54;14.45;;;7.93;;
19095;SDS011;9680;52.520;13.332;2023-03-19T13:29:26;12.35;;;6.88;;
19095;SDS011;9680;52.520;13.332;2023-03-19T13:31:58;14.13;;;6.80;;
19095;SDS011;9680;52.520;13.332;2023-03-19T13:34:30;13.90;;;7.10;;
19095;SDS011;9680;52.520;13.332;2023-03-19T13:37:05;12.25;;;7.00;;
19095;SDS011;9680;52.520;13.332;2023-03-19T13:40:01;13.70;;;7.00;;
19095;SDS011;9680;52.520;13.332;2023-03-19T13:42:41;11.35;;;6.70;;
19095;SDS011;9680;52.520;13.332;2023-03-19T13:45:39;14.65;;;7.88;;
19095;SDS011;9680;52.520;13.332;2023-03-19T13:49:21;13.98;;;7.13;;
19095;SDS011;9680;52.520;13.332;2023-03-19T13:55:32;14.88;;;7.57;;
19095;SDS011;9680;52.520;13.332;2023-03-19T13:58:19;13.50;;;7.32;;
19095;SDS011;9680;52.520;13.332;2023-03-19T14:01:08;11.57;;;6.75;;
19095;SDS011;9680;52.520;13.332;2023-03-19T14:03:50;15.82;;;7.57;;
19095;SDS011;9680;52.520;13.332;2023-03-19T14:12:08;18.52;;;8.40;;
19095;SDS011;9680;52.520;13.332;2023-03-19T14:17:58;12.82;;;7.63;;
19095;SDS011;9680;52.520;13.332;2023-03-19T14:20:56;12.88;;;7.15;;
19095;SDS011;9680;52.520;13.332;2023-03-19T14:23:50;13.45;;;7.35;;
19095;SDS011;9680;52.520;13.332;2023-03-19T14:26:58;14.43;;;6.97;;
19095;SDS011;9680;52.520;13.332;2023-03-19T14:29:57;17.27;;;7.38;;
19095;SDS011;9680;52.520;13.332;2023-03-19T14:33:01;14.95;;;7.22;;
19095;SDS011;9680;52.520;13.332;2023-03-19T14:35:43;16.92;;;8.68;;
19095;SDS011;9680;52.520;13.332;2023-03-19T14:38:45;11.95;;;6.57;;
19095;SDS011;9680;52.520;13.332;2023-03-19T14:41:48;16.25;;;6.40;;
19095;SDS011;9680;52.520;13.332;2023-03-19T14:54:18;9.40;;;5.65;;
19095;SDS011;9680;52.520;13.332;2023-03-19T14:57:17;11.98;;;6.00;;
19095;SDS011;9680;52.520;13.332;2023-03-19T14:59:47;12.27;;;6.05;;
19095;SDS011;9680;52.520;13.332;2023-03-19T15:02:38;10.40;;;5.50;;
19095;SDS011;9680;52.520;13.332;2023-03-19T15:08:36;10.07;;;5.40;;
19095;SDS011;9680;52.520;13.332;2023-03-19T15:11:33;10.40;;;5.72;;
19095;SDS011;9680;52.520;13.332;2023-03-19T15:17:20;10.23;;;5.43;;
19095;SDS011;9680;52.520;13.332;2023-03-19T15:20:12;12.40;;;6.22;;
19095;SDS011;9680;52.520;13.332;2023-03-19T15:22:53;12.38;;;5.88;;
19095;SDS011;9680;52.520;13.332;2023-03-19T15:25:42;9.98;;;6.00;;
19095;SDS011;9680;52.520;13.332;2023-03-19T15:28:24;12.52;;;5.90;;
19095;SDS011;9680;52.520;13.332;2023-03-19T15:31:00;10.00;;;5.55;;
19095;SDS011;9680;52.520;13.332;2023-03-19T15:33:35;11.18;;;6.28;;
19095;SDS011;9680;52.520;13.332;2023-03-19T15:36:16;19.55;;;6.55;;
19095;SDS011;9680;52.520;13.332;2023-03-19T15:38:56;13.82;;;6.30;;
19095;SDS011;9680;52.520;13.332;2023-03-19T15:41:47;12.02;;;6.13;;
19095;SDS011;9680;52.520;13.332;2023-03-19T15:44:32;10.60;;;6.00;;
19095;SDS011;9680;52.520;13.332;2023-03-19T15:47:15;13.45;;;6.15;;